sensor_id;sensor_type;location;lat;lon;timestamp;P1;durP1;ratioP1;P2;durP2;ratioP2
45368;SDS011;51342;55.250;37.668;2023-02-24T00:01:11;13.50;;;5.80;;
45368;SDS011;51342;55.250;37.668;2023-02-24T00:03:45;16.53;;;6.20;;
45368;SDS011;51342;55.250;37.668;2023-02-24T00:06:17;15.83;;;6.07;;
45368;SDS011;51342;55.250;37.668;2023-02-24T00:08:49;17.57;;;6.37;;
45368;SDS011;51342;55.250;37.668;2023-02-24T00:11:20;14.00;;;6.00;;
45368;SDS011;51342;55.250;37.668;2023-02-24T00:13:52;12.27;;;5.73;;
45368;SDS011;51342;55.250;37.668;2023-02-24T00:16:23;14.87;;;6.07;;
45368;SDS011;51342;55.250;37.668;2023-02-24T00:18:55;13.23;;;5.93;;
45368;SDS011;51342;55.250;37.668;2023-02-24T00:21:26;15.60;;;5.77;;
45368;SDS011;51342;55.250;37.668;2023-02-24T00:23:58;11.57;;;5.73;;
45368;SDS011;51342;55.250;37.668;2023-02-24T00:26:30;14.47;;;5.13;;
45368;SDS011;51342;55.250;37.668;2023-02-24T00:29:03;12.90;;;6.13;;
45368;SDS011;51342;55.250;37.668;2023-02-24T00:31:36;12.57;;;5.40;;
45368;SDS011;51342;55.250;37.668;2023-02-24T00:34:09;13.10;;;5.33;;
45368;SDS011;51342;55.250;37.668;2023-02-24T00:36:44;12.87;;;5.27;;
45368;SDS011;51342;55.250;37.668;2023-02-24T00:39:16;13.53;;;4.87;;
45368;SDS011;51342;55.250;37.668;2023-02-24T00:41:47;11.93;;;5.47;;
45368;SDS011;51342;55.250;37.668;2023-02-24T00:44:19;12.10;;;5.17;;
45368;SDS011;51342;55.250;37.668;2023-02-24T00:46:53;11.43;;;4.80;;
45368;SDS011;51342;55.250;37.668;2023-02-24T00:49:25;13.73;;;5.93;;
45368;SDS011;51342;55.250;37.668;2023-02-24T00:51:56;12.80;;;5.20;;
45368;SDS011;51342;55.250;37.668;2023-02-24T00:54:29;8.90;;;4.60;;
45368;SDS011;51342;55.250;37.668;2023-02-24T00:57:00;14.00;;;5.77;;
45368;SDS011;51342;55.250;37.668;2023-02-24T00:59:33;14.17;;;5.30;;
45368;SDS011;51342;55.250;37.668;2023-02-24T01:02:06;9.77;;;4.77;;
45368;SDS011;51342;55.250;37.668;2023-02-24T01:04:38;11.20;;;5.07;;
45368;SDS011;51342;55.250;37.668;2023-02-24T01:07:10;9.17;;;4.17;;
45368;SDS011;51342;55.250;37.668;2023-02-24T01:09:42;12.90;;;5.47;;
45368;SDS011;51342;55.250;37.668;2023-02-24T01:12:17;13.03;;;5.20;;
45368;SDS011;51342;55.250;37.668;2023-02-24T01:15:07;11.13;;;4.50;;
45368;SDS011;51342;55.250;37.668;2023-02-24T01:17:39;12.23;;;4.47;;
45368;SDS011;51342;55.250;37.668;2023-02-24T01:20:11;10.07;;;4.97;;
45368;SDS011;51342;55.250;37.668;2023-02-24T01:22:48;13.53;;;4.80;;
45368;SDS011;51342;55.250;37.668;2023-02-24T01:25:23;10.30;;;4.30;;
45368;SDS011;51342;55.250;37.668;2023-02-24T01:27:54;8.83;;;4.30;;
45368;SDS011;51342;55.250;37.668;2023-02-24T01:30:26;12.80;;;5.20;;
45368;SDS011;51342;55.250;37.668;2023-02-24T01:32:57;11.67;;;4.47;;
45368;SDS011;51342;55.250;37.668;2023-02-24T01:35:29;10.33;;;4.57;;
45368;SDS011;51342;55.250;37.668;2023-02-24T01:38:01;10.60;;;4.53;;
45368;SDS011;51342;55.250;37.668;2023-02-24T01:40:33;12.23;;;4.70;;
45368;SDS011;51342;55.250;37.668;2023-02-24T01:43:05;9.93;;;4.17;;
45368;SDS011;51342;55.250;37.668;2023-02-24T01:45:38;14.37;;;5.30;;
45368;SDS011;51342;55.250;37.668;2023-02-24T01:48:10;9.40;;;4.90;;
45368;SDS011;51342;55.250;37.668;2023-02-24T01:50:44;12.10;;;5.17;;
45368;SDS011;51342;55.250;37.668;2023-02-24T01:53:16;9.20;;;4.40;;
45368;SDS011;51342;55.250;37.668;2023-02-24T01:55:49;9.17;;;4.93;;
45368;SDS011;51342;55.250;37.668;2023-02-24T01:58:23;9.13;;;4.63;;
45368;SDS011;51342;55.250;37.668;2023-02-24T02:00:59;9.93;;;4.13;;
45368;SDS011;51342;55.250;37.668;2023-02-24T02:03:32;10.97;;;4.53;;
45368;SDS011;51342;55.250;37.668;2023-02-24T02:06:09;9.43;;;4.57;;
45368;SDS011;51342;55.250;37.668;2023-02-24T02:08:43;8.90;;;3.93;;
45368;SDS011;51342;55.250;37.668;2023-02-24T02:11:15;9.93;;;4.57;;
45368;SDS011;51342;55.250;37.668;2023-02-24T02:13:52;11.00;;;4.18;;
45368;SDS011;51342;55.250;37.668;2023-02-24T02:17:08;7.90;;;3.87;;
45368;SDS011;51342;55.250;37.668;2023-02-24T02:19:35;12.30;;;4.97;;
45368;SDS011;51342;55.250;37.668;2023-02-24T02:22:37;10.67;;;4.63;;
45368;SDS011;51342;55.250;37.668;2023-02-24T02:34:18;11.07;;;4.30;;
45368;SDS011;51342;55.250;37.668;2023-02-24T02:42:40;9.77;;;4.27;;
45368;SDS011;51342;55.250;37.668;2023-02-24T02:46:07;9.37;;;3.80;;
45368;SDS011;51342;55.250;37.668;2023-02-24T02:48:39;9.50;;;4.17;;
45368;SDS011;51342;55.250;37.668;2023-02-24T02:51:23;11.60;;;4.73;;
45368;SDS011;51342;55.250;37.668;2023-02-24T02:54:02;10.60;;;4.90;;
45368;SDS011;51342;55.250;37.668;2023-02-24T02:57:03;11.67;;;4.80;;
45368;SDS011;51342;55.250;37.668;2023-02-24T02:59:40;10.95;;;4.45;;
45368;SDS011;51342;55.250;37.668;2023-02-24T03:02:20;9.60;;;4.63;;
45368;SDS011;51342;55.250;37.668;2023-02-24T03:04:59;11.83;;;4.47;;
45368;SDS011;51342;55.250;37.668;2023-02-24T03:07:36;8.73;;;4.37;;
45368;SDS011;51342;55.250;37.668;2023-02-24T03:10:14;6.33;;;3.80;;
45368;SDS011;51342;55.250;37.668;2023-02-24T03:12:54;10.10;;;4.07;;
45368;SDS011;51342;55.250;37.668;2023-02-24T03:15:29;11.93;;;4.40;;
45368;SDS011;51342;55.250;37.668;2023-02-24T03:18:04;11.23;;;4.13;;
45368;SDS011;51342;55.250;37.668;2023-02-24T03:23:22;9.33;;;4.27;;
45368;SDS011;51342;55.250;37.668;2023-02-24T03:26:03;9.50;;;4.07;;
45368;SDS011;51342;55.250;37.668;2023-02-24T03:28:39;11.27;;;4.73;;
45368;SDS011;51342;55.250;37.668;2023-02-24T03:31:24;8.00;;;4.67;;
45368;SDS011;51342;55.250;37.668;2023-02-24T03:37:21;11.70;;;4.23;;
45368;SDS011;51342;55.250;37.668;2023-02-24T03:39:58;10.33;;;4.50;;
45368;SDS011;51342;55.250;37.668;2023-02-24T03:42:51;9.97;;;4.10;;
45368;SDS011;51342;55.250;37.668;2023-02-24T03:45:33;13.60;;;4.50;;
45368;SDS011;51342;55.250;37.668;2023-02-24T03:48:08;10.13;;;4.40;;
45368;SDS011;51342;55.250;37.668;2023-02-24T03:50:44;8.87;;;4.37;;
45368;SDS011;51342;55.250;37.668;2023-02-24T03:53:39;12.00;;;4.77;;
45368;SDS011;51342;55.250;37.668;2023-02-24T04:07:44;10.75;;;4.53;;
45368;SDS011;51342;55.250;37.668;2023-02-24T04:15:55;12.13;;;5.50;;
45368;SDS011;51342;55.250;37.668;2023-02-24T04:18:31;11.70;;;5.00;;
45368;SDS011;51342;55.250;37.668;2023-02-24T04:21:03;11.57;;;4.63;;
45368;SDS011;51342;55.250;37.668;2023-02-24T04:23:41;10.37;;;4.77;;
45368;SDS011;51342;55.250;37.668;2023-02-24T04:26:15;12.80;;;5.10;;
45368;SDS011;51342;55.250;37.668;2023-02-24T04:28:48;13.37;;;5.13;;
45368;SDS011;51342;55.250;37.668;2023-02-24T04:31:20;17.00;;;5.40;;
45368;SDS011;51342;55.250;37.668;2023-02-24T04:33:55;12.60;;;5.33;;
45368;SDS011;51342;55.250;37.668;2023-02-24T04:36:36;12.47;;;5.10;;
45368;SDS011;51342;55.250;37.668;2023-02-24T04:39:09;11.90;;;5.27;;
45368;SDS011;51342;55.250;37.668;2023-02-24T04:41:47;9.53;;;4.53;;
45368;SDS011;51342;55.250;37.668;2023-02-24T04:44:20;12.17;;;4.83;;
45368;SDS011;51342;55.250;37.668;2023-02-24T04:46:52;13.97;;;5.50;;
45368;SDS011;51342;55.250;37.668;2023-02-24T04:49:23;13.37;;;5.47;;
45368;SDS011;51342;55.250;37.668;2023-02-24T04:51:55;12.00;;;5.20;;
45368;SDS011;51342;55.250;37.668;2023-02-24T04:54:27;13.33;;;5.97;;
45368;SDS011;51342;55.250;37.668;2023-02-24T04:56:59;12.63;;;5.20;;
45368;SDS011;51342;55.250;37.668;2023-02-24T04:59:31;15.40;;;5.90;;
45368;SDS011;51342;55.250;37.668;2023-02-24T05:02:03;10.97;;;5.30;;
45368;SDS011;51342;55.250;37.668;2023-02-24T05:04:34;12.17;;;5.00;;
45368;SDS011;51342;55.250;37.668;2023-02-24T05:07:08;14.07;;;5.60;;
45368;SDS011;51342;55.250;37.668;2023-02-24T05:09:42;11.57;;;6.03;;
45368;SDS011;51342;55.250;37.668;2023-02-24T05:12:19;11.18;;;4.90;;
45368;SDS011;51342;55.250;37.668;2023-02-24T05:14:51;14.07;;;6.17;;
45368;SDS011;51342;55.250;37.668;2023-02-24T05:17:23;11.83;;;6.07;;
45368;SDS011;51342;55.250;37.668;2023-02-24T05:19:54;12.13;;;5.30;;
45368;SDS011;51342;55.250;37.668;2023-02-24T05:22:47;11.37;;;5.40;;
45368;SDS011;51342;55.250;37.668;2023-02-24T05:25:21;14.53;;;5.10;;
45368;SDS011;51342;55.250;37.668;2023-02-24T05:27:55;10.27;;;5.20;;
45368;SDS011;51342;55.250;37.668;2023-02-24T05:30:27;13.47;;;5.77;;
45368;SDS011;51342;55.250;37.668;2023-02-24T05:32:59;11.60;;;5.67;;
45368;SDS011;51342;55.250;37.668;2023-02-24T05:35:34;13.07;;;6.43;;
45368;SDS011;51342;55.250;37.668;2023-02-24T05:38:07;13.93;;;5.43;;
45368;SDS011;51342;55.250;37.668;2023-02-24T05:40:39;14.27;;;6.13;;
45368;SDS011;51342;55.250;37.668;2023-02-24T05:43:17;14.07;;;5.93;;
45368;SDS011;51342;55.250;37.668;2023-02-24T05:45:49;11.90;;;5.43;;
45368;SDS011;51342;55.250;37.668;2023-02-24T05:48:21;12.03;;;5.50;;
45368;SDS011;51342;55.250;37.668;2023-02-24T05:50:54;11.97;;;5.87;;
45368;SDS011;51342;55.250;37.668;2023-02-24T05:53:27;12.67;;;5.93;;
45368;SDS011;51342;55.250;37.668;2023-02-24T05:56:00;13.43;;;5.70;;
45368;SDS011;51342;55.250;37.668;2023-02-24T05:58:36;12.40;;;5.40;;
45368;SDS011;51342;55.250;37.668;2023-02-24T06:01:15;12.13;;;5.60;;
45368;SDS011;51342;55.250;37.668;2023-02-24T06:03:50;12.93;;;5.33;;
45368;SDS011;51342;55.250;37.668;2023-02-24T06:06:25;12.53;;;5.77;;
45368;SDS011;51342;55.250;37.668;2023-02-24T06:08:58;13.77;;;6.57;;
45368;SDS011;51342;55.250;37.668;2023-02-24T06:11:38;14.30;;;6.43;;
45368;SDS011;51342;55.250;37.668;2023-02-24T06:14:12;10.60;;;5.93;;
45368;SDS011;51342;55.250;37.668;2023-02-24T06:16:47;16.60;;;6.10;;
45368;SDS011;51342;55.250;37.668;2023-02-24T06:19:21;12.00;;;5.73;;
45368;SDS011;51342;55.250;37.668;2023-02-24T06:21:57;11.53;;;5.80;;
45368;SDS011;51342;55.250;37.668;2023-02-24T06:24:33;14.97;;;6.40;;
45368;SDS011;51342;55.250;37.668;2023-02-24T06:27:07;12.23;;;5.83;;
45368;SDS011;51342;55.250;37.668;2023-02-24T06:29:49;10.73;;;5.90;;
45368;SDS011;51342;55.250;37.668;2023-02-24T06:32:24;15.70;;;6.10;;
45368;SDS011;51342;55.250;37.668;2023-02-24T06:34:59;14.90;;;5.70;;
45368;SDS011;51342;55.250;37.668;2023-02-24T06:37:35;14.63;;;6.53;;
45368;SDS011;51342;55.250;37.668;2023-02-24T06:40:12;13.27;;;6.20;;
45368;SDS011;51342;55.250;37.668;2023-02-24T06:42:49;14.15;;;6.47;;
45368;SDS011;51342;55.250;37.668;2023-02-24T06:45:26;10.90;;;6.90;;
45368;SDS011;51342;55.250;37.668;2023-02-24T06:48:02;12.67;;;5.80;;
45368;SDS011;51342;55.250;37.668;2023-02-24T06:50:37;14.37;;;6.40;;
45368;SDS011;51342;55.250;37.668;2023-02-24T06:53:13;13.70;;;7.30;;
45368;SDS011;51342;55.250;37.668;2023-02-24T06:55:53;10.67;;;5.90;;
45368;SDS011;51342;55.250;37.668;2023-02-24T06:58:28;13.07;;;6.73;;
45368;SDS011;51342;55.250;37.668;2023-02-24T07:01:07;14.07;;;6.13;;
45368;SDS011;51342;55.250;37.668;2023-02-24T07:03:49;14.93;;;7.33;;
45368;SDS011;51342;55.250;37.668;2023-02-24T07:06:49;13.30;;;6.57;;
45368;SDS011;51342;55.250;37.668;2023-02-24T07:09:28;15.50;;;6.60;;
45368;SDS011;51342;55.250;37.668;2023-02-24T07:12:03;16.70;;;7.30;;
45368;SDS011;51342;55.250;37.668;2023-02-24T07:14:41;16.05;;;7.32;;
45368;SDS011;51342;55.250;37.668;2023-02-24T07:17:19;13.70;;;6.77;;
45368;SDS011;51342;55.250;37.668;2023-02-24T07:19:55;14.57;;;7.53;;
45368;SDS011;51342;55.250;37.668;2023-02-24T07:22:36;13.57;;;6.83;;
45368;SDS011;51342;55.250;37.668;2023-02-24T07:25:14;16.37;;;6.27;;
45368;SDS011;51342;55.250;37.668;2023-02-24T07:28:04;14.30;;;6.93;;
45368;SDS011;51342;55.250;37.668;2023-02-24T07:30:41;14.00;;;6.83;;
45368;SDS011;51342;55.250;37.668;2023-02-24T07:33:16;15.07;;;6.80;;
45368;SDS011;51342;55.250;37.668;2023-02-24T07:35:54;15.73;;;6.10;;
45368;SDS011;51342;55.250;37.668;2023-02-24T07:38:37;17.07;;;7.40;;
45368;SDS011;51342;55.250;37.668;2023-02-24T07:41:18;17.40;;;7.50;;
45368;SDS011;51342;55.250;37.668;2023-02-24T07:43:57;15.87;;;6.70;;
45368;SDS011;51342;55.250;37.668;2023-02-24T07:46:34;15.00;;;7.60;;
45368;SDS011;51342;55.250;37.668;2023-02-24T07:49:12;16.27;;;8.07;;
45368;SDS011;51342;55.250;37.668;2023-02-24T07:51:52;16.07;;;8.23;;
45368;SDS011;51342;55.250;37.668;2023-02-24T07:54:31;17.23;;;7.63;;
45368;SDS011;51342;55.250;37.668;2023-02-24T07:57:07;18.30;;;8.77;;
45368;SDS011;51342;55.250;37.668;2023-02-24T07:59:47;23.30;;;8.70;;
45368;SDS011;51342;55.250;37.668;2023-02-24T08:02:27;19.67;;;7.80;;
45368;SDS011;51342;55.250;37.668;2023-02-24T08:05:06;18.30;;;8.33;;
45368;SDS011;51342;55.250;37.668;2023-02-24T08:07:43;17.87;;;7.70;;
45368;SDS011;51342;55.250;37.668;2023-02-24T08:10:26;17.00;;;8.00;;
45368;SDS011;51342;55.250;37.668;2023-02-24T08:13:08;16.47;;;7.77;;
45368;SDS011;51342;55.250;37.668;2023-02-24T08:15:47;17.77;;;8.77;;
45368;SDS011;51342;55.250;37.668;2023-02-24T08:18:27;14.70;;;8.27;;
45368;SDS011;51342;55.250;37.668;2023-02-24T08:21:07;17.40;;;8.30;;
45368;SDS011;51342;55.250;37.668;2023-02-24T08:23:45;16.47;;;8.33;;
45368;SDS011;51342;55.250;37.668;2023-02-24T08:26:19;15.67;;;8.70;;
45368;SDS011;51342;55.250;37.668;2023-02-24T08:29:04;19.20;;;9.57;;
45368;SDS011;51342;55.250;37.668;2023-02-24T08:31:39;17.30;;;8.90;;
45368;SDS011;51342;55.250;37.668;2023-02-24T08:34:21;19.30;;;9.20;;
45368;SDS011;51342;55.250;37.668;2023-02-24T08:37:04;17.30;;;7.80;;
45368;SDS011;51342;55.250;37.668;2023-02-24T08:39:40;20.58;;;8.82;;
45368;SDS011;51342;55.250;37.668;2023-02-24T08:42:17;18.43;;;8.90;;
45368;SDS011;51342;55.250;37.668;2023-02-24T08:45:02;21.73;;;9.03;;
45368;SDS011;51342;55.250;37.668;2023-02-24T08:47:39;17.13;;;7.97;;
45368;SDS011;51342;55.250;37.668;2023-02-24T08:50:18;17.10;;;8.60;;
45368;SDS011;51342;55.250;37.668;2023-02-24T08:52:59;19.57;;;8.73;;
45368;SDS011;51342;55.250;37.668;2023-02-24T08:55:35;15.70;;;8.73;;
45368;SDS011;51342;55.250;37.668;2023-02-24T08:58:12;18.00;;;10.20;;
45368;SDS011;51342;55.250;37.668;2023-02-24T09:00:55;18.63;;;7.97;;
45368;SDS011;51342;55.250;37.668;2023-02-24T09:03:40;21.30;;;9.00;;
45368;SDS011;51342;55.250;37.668;2023-02-24T09:06:18;16.08;;;8.23;;
45368;SDS011;51342;55.250;37.668;2023-02-24T09:09:01;17.90;;;8.73;;
45368;SDS011;51342;55.250;37.668;2023-02-24T09:11:54;20.30;;;9.00;;
45368;SDS011;51342;55.250;37.668;2023-02-24T09:14:35;21.47;;;9.23;;
45368;SDS011;51342;55.250;37.668;2023-02-24T09:17:14;17.20;;;8.63;;
45368;SDS011;51342;55.250;37.668;2023-02-24T09:19:52;18.33;;;8.50;;
45368;SDS011;51342;55.250;37.668;2023-02-24T09:22:47;17.47;;;8.30;;
45368;SDS011;51342;55.250;37.668;2023-02-24T09:25:41;17.83;;;9.13;;
45368;SDS011;51342;55.250;37.668;2023-02-24T09:28:21;16.33;;;8.03;;
45368;SDS011;51342;55.250;37.668;2023-02-24T09:31:01;14.70;;;7.57;;
45368;SDS011;51342;55.250;37.668;2023-02-24T09:33:39;15.97;;;8.20;;
45368;SDS011;51342;55.250;37.668;2023-02-24T09:38:59;15.90;;;8.13;;
45368;SDS011;51342;55.250;37.668;2023-02-24T09:41:47;16.00;;;7.77;;
45368;SDS011;51342;55.250;37.668;2023-02-24T09:44:38;16.87;;;8.57;;
45368;SDS011;51342;55.250;37.668;2023-02-24T09:47:32;18.70;;;8.40;;
45368;SDS011;51342;55.250;37.668;2023-02-24T09:50:25;19.40;;;8.73;;
45368;SDS011;51342;55.250;37.668;2023-02-24T09:53:44;15.73;;;7.47;;
45368;SDS011;51342;55.250;37.668;2023-02-24T09:56:27;14.27;;;7.53;;
45368;SDS011;51342;55.250;37.668;2023-02-24T09:59:21;14.67;;;8.23;;
45368;SDS011;51342;55.250;37.668;2023-02-24T10:05:57;14.37;;;8.00;;
45368;SDS011;51342;55.250;37.668;2023-02-24T10:08:55;17.33;;;8.77;;
45368;SDS011;51342;55.250;37.668;2023-02-24T10:11:48;18.83;;;8.40;;
45368;SDS011;51342;55.250;37.668;2023-02-24T10:17:52;13.73;;;7.50;;
45368;SDS011;51342;55.250;37.668;2023-02-24T10:20:36;13.33;;;7.17;;
45368;SDS011;51342;55.250;37.668;2023-02-24T10:23:46;15.40;;;8.30;;
45368;SDS011;51342;55.250;37.668;2023-02-24T10:32:22;14.47;;;7.13;;
45368;SDS011;51342;55.250;37.668;2023-02-24T10:35:17;16.70;;;8.63;;
45368;SDS011;51342;55.250;37.668;2023-02-24T10:38:02;17.73;;;7.93;;
45368;SDS011;51342;55.250;37.668;2023-02-24T10:40:54;16.60;;;9.33;;
45368;SDS011;51342;55.250;37.668;2023-02-24T10:43:32;17.47;;;7.83;;
45368;SDS011;51342;55.250;37.668;2023-02-24T10:46:34;16.50;;;7.80;;
45368;SDS011;51342;55.250;37.668;2023-02-24T10:49:18;16.67;;;8.07;;
45368;SDS011;51342;55.250;37.668;2023-02-24T10:51:57;17.63;;;7.93;;
45368;SDS011;51342;55.250;37.668;2023-02-24T10:54:38;14.13;;;7.97;;
45368;SDS011;51342;55.250;37.668;2023-02-24T10:57:41;14.43;;;8.00;;
45368;SDS011;51342;55.250;37.668;2023-02-24T11:00:39;15.40;;;7.50;;
45368;SDS011;51342;55.250;37.668;2023-02-24T11:03:48;15.67;;;8.07;;
45368;SDS011;51342;55.250;37.668;2023-02-24T11:06:48;15.63;;;8.23;;
45368;SDS011;51342;55.250;37.668;2023-02-24T11:09:30;15.00;;;8.33;;
45368;SDS011;51342;55.250;37.668;2023-02-24T11:12:23;15.40;;;8.40;;
45368;SDS011;51342;55.250;37.668;2023-02-24T11:15:19;15.20;;;8.03;;
45368;SDS011;51342;55.250;37.668;2023-02-24T11:18:21;12.77;;;7.43;;
45368;SDS011;51342;55.250;37.668;2023-02-24T11:21:04;14.50;;;7.40;;
45368;SDS011;51342;55.250;37.668;2023-02-24T11:23:48;15.13;;;8.03;;
45368;SDS011;51342;55.250;37.668;2023-02-24T11:26:33;15.93;;;9.23;;
45368;SDS011;51342;55.250;37.668;2023-02-24T11:32:23;16.57;;;7.93;;
45368;SDS011;51342;55.250;37.668;2023-02-24T11:43:57;14.00;;;7.73;;
45368;SDS011;51342;55.250;37.668;2023-02-24T11:46:38;17.57;;;8.47;;
45368;SDS011;51342;55.250;37.668;2023-02-24T11:52:30;15.80;;;8.27;;
45368;SDS011;51342;55.250;37.668;2023-02-24T11:55:25;12.40;;;7.53;;
45368;SDS011;51342;55.250;37.668;2023-02-24T11:58:20;15.27;;;8.87;;
45368;SDS011;51342;55.250;37.668;2023-02-24T12:01:36;15.13;;;8.00;;
45368;SDS011;51342;55.250;37.668;2023-02-24T12:04:59;16.60;;;8.43;;
45368;SDS011;51342;55.250;37.668;2023-02-24T12:13:01;14.03;;;7.97;;
45368;SDS011;51342;55.250;37.668;2023-02-24T12:21:52;14.90;;;7.87;;
45368;SDS011;51342;55.250;37.668;2023-02-24T12:24:48;17.87;;;8.90;;
45368;SDS011;51342;55.250;37.668;2023-02-24T12:30:44;18.43;;;9.73;;
45368;SDS011;51342;55.250;37.668;2023-02-24T12:33:37;13.60;;;8.10;;
45368;SDS011;51342;55.250;37.668;2023-02-24T12:39:48;17.73;;;8.93;;
45368;SDS011;51342;55.250;37.668;2023-02-24T12:57:15;16.77;;;8.80;;
45368;SDS011;51342;55.250;37.668;2023-02-24T12:59:50;15.55;;;8.13;;
45368;SDS011;51342;55.250;37.668;2023-02-24T13:03:14;14.30;;;7.55;;
45368;SDS011;51342;55.250;37.668;2023-02-24T13:05:28;15.43;;;8.77;;
45368;SDS011;51342;55.250;37.668;2023-02-24T13:12:00;18.23;;;8.73;;
45368;SDS011;51342;55.250;37.668;2023-02-24T13:17:25;18.50;;;8.50;;
45368;SDS011;51342;55.250;37.668;2023-02-24T13:20:09;19.03;;;9.40;;
45368;SDS011;51342;55.250;37.668;2023-02-24T13:22:47;17.20;;;9.43;;
45368;SDS011;51342;55.250;37.668;2023-02-24T13:25:28;18.10;;;9.47;;
45368;SDS011;51342;55.250;37.668;2023-02-24T13:28:23;19.47;;;9.07;;
45368;SDS011;51342;55.250;37.668;2023-02-24T13:31:06;16.23;;;8.67;;
45368;SDS011;51342;55.250;37.668;2023-02-24T13:33:47;17.00;;;8.80;;
45368;SDS011;51342;55.250;37.668;2023-02-24T13:36:27;19.83;;;10.13;;
45368;SDS011;51342;55.250;37.668;2023-02-24T13:39:05;16.97;;;9.60;;
45368;SDS011;51342;55.250;37.668;2023-02-24T13:42:04;18.63;;;9.40;;
45368;SDS011;51342;55.250;37.668;2023-02-24T13:44:47;20.13;;;10.80;;
45368;SDS011;51342;55.250;37.668;2023-02-24T13:50:31;19.50;;;10.40;;
45368;SDS011;51342;55.250;37.668;2023-02-24T13:59:28;18.47;;;9.83;;
45368;SDS011;51342;55.250;37.668;2023-02-24T14:04:48;25.97;;;13.23;;
45368;SDS011;51342;55.250;37.668;2023-02-24T14:07:30;31.37;;;15.87;;
45368;SDS011;51342;55.250;37.668;2023-02-24T14:10:21;26.10;;;13.77;;
45368;SDS011;51342;55.250;37.668;2023-02-24T14:13:35;25.03;;;12.73;;
45368;SDS011;51342;55.250;37.668;2023-02-24T14:16:07;23.00;;;12.90;;
45368;SDS011;51342;55.250;37.668;2023-02-24T14:18:51;21.70;;;12.13;;
45368;SDS011;51342;55.250;37.668;2023-02-24T14:21:37;22.43;;;11.10;;
45368;SDS011;51342;55.250;37.668;2023-02-24T14:24:21;20.93;;;11.10;;
45368;SDS011;51342;55.250;37.668;2023-02-24T14:27:02;20.20;;;10.20;;
45368;SDS011;51342;55.250;37.668;2023-02-24T14:29:42;17.60;;;9.97;;
45368;SDS011;51342;55.250;37.668;2023-02-24T14:32:28;23.17;;;10.83;;
45368;SDS011;51342;55.250;37.668;2023-02-24T14:35:17;18.10;;;10.23;;
45368;SDS011;51342;55.250;37.668;2023-02-24T14:37:58;20.20;;;9.77;;
45368;SDS011;51342;55.250;37.668;2023-02-24T14:40:36;18.97;;;10.53;;
45368;SDS011;51342;55.250;37.668;2023-02-24T14:43:22;20.63;;;10.50;;
45368;SDS011;51342;55.250;37.668;2023-02-24T14:46:04;19.47;;;10.90;;
45368;SDS011;51342;55.250;37.668;2023-02-24T14:48:50;21.40;;;11.07;;
45368;SDS011;51342;55.250;37.668;2023-02-24T14:54:07;21.17;;;9.38;;
45368;SDS011;51342;55.250;37.668;2023-02-24T14:56:57;17.60;;;9.93;;
45368;SDS011;51342;55.250;37.668;2023-02-24T14:59:41;24.50;;;12.53;;
45368;SDS011;51342;55.250;37.668;2023-02-24T15:02:23;19.40;;;11.10;;
45368;SDS011;51342;55.250;37.668;2023-02-24T15:05:08;25.00;;;11.40;;
45368;SDS011;51342;55.250;37.668;2023-02-24T15:07:48;21.40;;;11.63;;
45368;SDS011;51342;55.250;37.668;2023-02-24T15:10:28;22.87;;;11.13;;
45368;SDS011;51342;55.250;37.668;2023-02-24T15:13:10;22.42;;;11.43;;
45368;SDS011;51342;55.250;37.668;2023-02-24T15:16:05;21.70;;;11.50;;
45368;SDS011;51342;55.250;37.668;2023-02-24T15:18:51;21.07;;;10.50;;
45368;SDS011;51342;55.250;37.668;2023-02-24T15:21:31;22.30;;;11.07;;
45368;SDS011;51342;55.250;37.668;2023-02-24T15:24:28;20.57;;;11.07;;
45368;SDS011;51342;55.250;37.668;2023-02-24T15:30:01;19.17;;;11.10;;
45368;SDS011;51342;55.250;37.668;2023-02-24T15:33:16;21.13;;;11.13;;
45368;SDS011;51342;55.250;37.668;2023-02-24T15:36:04;22.60;;;10.70;;
45368;SDS011;51342;55.250;37.668;2023-02-24T15:38:48;22.95;;;11.45;;
45368;SDS011;51342;55.250;37.668;2023-02-24T15:41:43;22.47;;;12.10;;
45368;SDS011;51342;55.250;37.668;2023-02-24T15:44:28;23.20;;;11.30;;
45368;SDS011;51342;55.250;37.668;2023-02-24T15:50:14;25.93;;;12.17;;
45368;SDS011;51342;55.250;37.668;2023-02-24T15:52:52;24.57;;;12.27;;
45368;SDS011;51342;55.250;37.668;2023-02-24T15:55:30;30.27;;;13.73;;
45368;SDS011;51342;55.250;37.668;2023-02-24T15:58:12;22.40;;;12.43;;
45368;SDS011;51342;55.250;37.668;2023-02-24T16:00:52;31.07;;;14.77;;
45368;SDS011;51342;55.250;37.668;2023-02-24T16:03:27;27.27;;;14.03;;
45368;SDS011;51342;55.250;37.668;2023-02-24T16:06:07;27.33;;;13.80;;
45368;SDS011;51342;55.250;37.668;2023-02-24T16:08:55;30.00;;;12.77;;
45368;SDS011;51342;55.250;37.668;2023-02-24T16:11:31;24.10;;;12.80;;
45368;SDS011;51342;55.250;37.668;2023-02-24T16:14:17;25.73;;;12.87;;
45368;SDS011;51342;55.250;37.668;2023-02-24T16:16:55;27.30;;;13.63;;
45368;SDS011;51342;55.250;37.668;2023-02-24T16:19:33;22.27;;;12.47;;
45368;SDS011;51342;55.250;37.668;2023-02-24T16:22:08;22.30;;;12.77;;
45368;SDS011;51342;55.250;37.668;2023-02-24T16:24:43;27.03;;;12.67;;
45368;SDS011;51342;55.250;37.668;2023-02-24T16:27:22;27.40;;;13.07;;
45368;SDS011;51342;55.250;37.668;2023-02-24T16:30:00;23.33;;;12.50;;
45368;SDS011;51342;55.250;37.668;2023-02-24T16:32:41;25.93;;;13.00;;
45368;SDS011;51342;55.250;37.668;2023-02-24T16:35:21;25.47;;;12.53;;
45368;SDS011;51342;55.250;37.668;2023-02-24T16:38:01;31.53;;;15.83;;
45368;SDS011;51342;55.250;37.668;2023-02-24T16:40:45;26.87;;;13.90;;
45368;SDS011;51342;55.250;37.668;2023-02-24T16:43:23;27.50;;;14.40;;
45368;SDS011;51342;55.250;37.668;2023-02-24T16:46:03;26.50;;;14.63;;
45368;SDS011;51342;55.250;37.668;2023-02-24T16:48:43;24.93;;;12.97;;
45368;SDS011;51342;55.250;37.668;2023-02-24T16:51:21;32.72;;;15.45;;
45368;SDS011;51342;55.250;37.668;2023-02-24T16:54:00;25.63;;;12.97;;
45368;SDS011;51342;55.250;37.668;2023-02-24T16:56:38;25.83;;;12.30;;
45368;SDS011;51342;55.250;37.668;2023-02-24T16:59:16;25.43;;;13.20;;
45368;SDS011;51342;55.250;37.668;2023-02-24T17:01:58;28.73;;;13.90;;
45368;SDS011;51342;55.250;37.668;2023-02-24T17:04:34;34.90;;;19.37;;
45368;SDS011;51342;55.250;37.668;2023-02-24T17:07:14;28.10;;;13.60;;
45368;SDS011;51342;55.250;37.668;2023-02-24T17:09:51;32.33;;;16.93;;
45368;SDS011;51342;55.250;37.668;2023-02-24T17:12:29;28.87;;;13.63;;
45368;SDS011;51342;55.250;37.668;2023-02-24T17:15:12;27.63;;;13.97;;
45368;SDS011;51342;55.250;37.668;2023-02-24T17:17:56;29.93;;;14.37;;
45368;SDS011;51342;55.250;37.668;2023-02-24T17:20:32;28.33;;;13.80;;
45368;SDS011;51342;55.250;37.668;2023-02-24T17:23:10;30.40;;;14.13;;
45368;SDS011;51342;55.250;37.668;2023-02-24T17:25:49;28.60;;;14.27;;
45368;SDS011;51342;55.250;37.668;2023-02-24T17:28:28;29.77;;;13.97;;
45368;SDS011;51342;55.250;37.668;2023-02-24T17:31:09;33.40;;;17.23;;
45368;SDS011;51342;55.250;37.668;2023-02-24T17:33:48;29.03;;;15.13;;
45368;SDS011;51342;55.250;37.668;2023-02-24T17:36:20;28.37;;;15.47;;
45368;SDS011;51342;55.250;37.668;2023-02-24T17:38:56;30.10;;;14.90;;
45368;SDS011;51342;55.250;37.668;2023-02-24T17:41:34;29.67;;;14.17;;
45368;SDS011;51342;55.250;37.668;2023-02-24T17:44:10;29.60;;;14.60;;